createdAt,value
2023-02-19T00:01:24.432Z,56.70
2023-02-19T00:03:52.803Z,57.70
2023-02-19T00:06:19.661Z,57.39
2023-02-19T00:08:46.424Z,57.02
2023-02-19T00:11:15.270Z,56.98
2023-02-19T00:13:43.259Z,58.38
2023-02-19T00:16:14.701Z,58.94
2023-02-19T00:18:41.630Z,59.69
2023-02-19T00:21:09.102Z,60.08
2023-02-19T00:23:36.181Z,62.29
2023-02-19T00:26:17.673Z,63.62
2023-02-19T00:28:45.275Z,64.58
2023-02-19T00:31:23.552Z,65.12
2023-02-19T00:33:52.289Z,66.07
2023-02-19T00:36:19.093Z,65.36
2023-02-19T00:38:45.915Z,65.22
2023-02-19T00:41:22.199Z,65.03
2023-02-19T00:44:02.661Z,65.24
2023-02-19T00:46:37.307Z,65.58
2023-02-19T00:49:04.911Z,65.16
2023-02-19T00:51:33.623Z,65.23
2023-02-19T00:54:00.417Z,65.39
2023-02-19T00:56:27.173Z,65.16
2023-02-19T00:58:53.895Z,66.14
2023-02-19T01:01:20.967Z,67.40
2023-02-19T01:03:47.793Z,67.40
2023-02-19T01:06:16.014Z,66.34
2023-02-19T01:08:43.015Z,65.12
2023-02-19T01:11:10.103Z,64.07
2023-02-19T01:13:37.050Z,64.12
2023-02-19T01:16:07.561Z,63.98
2023-02-19T01:18:34.457Z,64.03
2023-02-19T01:21:05.459Z,63.94
2023-02-19T01:23:32.180Z,63.37
2023-02-19T01:25:58.824Z,62.74
2023-02-19T01:28:25.418Z,63.13
2023-02-19T01:30:52.109Z,62.34
2023-02-19T01:33:18.780Z,61.71
2023-02-19T01:35:45.537Z,62.13
2023-02-19T01:38:12.204Z,62.09
2023-02-19T01:40:38.795Z,62.62
2023-02-19T01:43:06.601Z,62.91
2023-02-19T01:45:34.616Z,62.92
2023-02-19T01:48:11.864Z,62.37
2023-02-19T01:50:46.476Z,62.31
2023-02-19T01:53:13.705Z,61.12
2023-02-19T01:55:40.413Z,60.95
2023-02-19T01:58:07.084Z,60.94
2023-02-19T02:00:33.879Z,61.74
2023-02-19T02:03:00.550Z,61.45
2023-02-19T02:05:42.422Z,60.97
2023-02-19T02:08:27.624Z,61.61
2023-02-19T02:10:54.319Z,61.98
2023-02-19T02:13:21.015Z,61.25
2023-02-19T02:15:51.162Z,61.85
2023-02-19T02:18:49.114Z,60.47
2023-02-19T02:21:48.082Z,61.68
2023-02-19T02:24:20.469Z,60.59
2023-02-19T02:27:12.729Z,59.07
2023-02-19T02:29:45.507Z,59.72
2023-02-19T02:32:14.363Z,59.99
2023-02-19T02:34:54.128Z,61.29
2023-02-19T02:37:20.902Z,61.90
2023-02-19T02:39:47.590Z,62.12
2023-02-19T02:42:29.552Z,62.26
2023-02-19T02:45:15.762Z,63.04
2023-02-19T02:47:53.325Z,63.15
2023-02-19T02:50:47.262Z,62.99
2023-02-19T02:53:37.029Z,62.87
2023-02-19T02:56:03.830Z,62.67
2023-02-19T02:58:30.729Z,63.04
2023-02-19T03:01:27.773Z,64.21
2023-02-19T03:04:01.418Z,64.36
2023-02-19T03:06:29.962Z,65.07
2023-02-19T03:09:08.721Z,64.99
2023-02-19T03:12:07.666Z,65.22
2023-02-19T03:14:56.795Z,63.95
2023-02-19T03:18:06.695Z,63.23
2023-02-19T03:20:34.697Z,63.42
2023-02-19T03:23:01.412Z,63.57
2023-02-19T03:25:50.777Z,63.54
2023-02-19T03:28:18.146Z,64.36
2023-02-19T03:30:50.853Z,66.72
2023-02-19T03:33:19.858Z,68.83
2023-02-19T03:36:05.445Z,68.69
2023-02-19T03:38:44.943Z,70.07
2023-02-19T03:41:26.593Z,69.95
2023-02-19T03:43:57.999Z,68.45
2023-02-19T03:46:39.117Z,66.28
2023-02-19T03:49:15.794Z,60.73
2023-02-19T03:51:45.086Z,58.74
2023-02-19T03:54:41.537Z,56.00
2023-02-19T03:57:30.205Z,54.27
2023-02-19T04:00:27.368Z,53.06
2023-02-19T04:02:55.184Z,52.12
2023-02-19T04:05:23.237Z,53.31
2023-02-19T04:07:50.924Z,53.26
2023-02-19T04:10:17.796Z,53.21
2023-02-19T04:12:48.337Z,52.33
2023-02-19T04:15:17.757Z,52.54
2023-02-19T04:17:47.545Z,52.75
2023-02-19T04:20:14.277Z,52.68
2023-02-19T04:22:40.993Z,52.59
2023-02-19T04:25:07.896Z,53.31
2023-02-19T04:27:38.537Z,53.88
2023-02-19T04:30:06.506Z,54.94
2023-02-19T04:32:33.262Z,55.48
2023-02-19T04:34:59.906Z,56.39
2023-02-19T04:37:26.569Z,57.72
2023-02-19T04:39:53.355Z,59.18
2023-02-19T04:42:19.933Z,59.86
2023-02-19T04:44:46.575Z,58.65
2023-02-19T04:47:13.357Z,59.09
2023-02-19T04:49:40.093Z,60.26
2023-02-19T04:52:06.708Z,60.72
2023-02-19T04:54:33.509Z,58.93
2023-02-19T04:57:00.138Z,58.95
2023-02-19T04:59:26.788Z,60.78
2023-02-19T05:01:53.568Z,60.94
2023-02-19T05:04:20.220Z,61.27
2023-02-19T05:06:46.941Z,61.77
2023-02-19T05:09:13.683Z,63.42
2023-02-19T05:11:40.414Z,62.90
2023-02-19T05:14:07.149Z,63.14
2023-02-19T05:16:33.805Z,63.45
2023-02-19T05:19:00.557Z,64.08
2023-02-19T05:21:27.311Z,63.67
2023-02-19T05:23:54.150Z,64.41
2023-02-19T05:26:22.026Z,64.96
2023-02-19T05:28:50.489Z,64.52
2023-02-19T05:31:17.462Z,64.84
2023-02-19T05:33:45.719Z,64.76
2023-02-19T05:36:13.200Z,65.84
2023-02-19T05:38:40.474Z,66.31
2023-02-19T05:41:13.171Z,66.18
2023-02-19T05:43:40.192Z,66.72
2023-02-19T05:46:07.037Z,67.02
2023-02-19T05:48:33.969Z,67.03
2023-02-19T05:51:09.240Z,67.92
2023-02-19T05:53:36.276Z,67.17
